createdAt,value
2022-11-25T00:02:59.571Z,2.70
2022-11-25T00:08:19.559Z,2.30
2022-11-25T00:13:40.830Z,2.30
2022-11-25T00:19:00.570Z,2.47
2022-11-25T00:24:20.759Z,2.70
2022-11-25T00:29:40.848Z,3.10
2022-11-25T00:35:01.204Z,2.40
2022-11-25T00:40:21.262Z,2.50
2022-11-25T00:45:41.406Z,2.40
2022-11-25T00:51:01.452Z,2.73
2022-11-25T00:56:21.643Z,2.70
2022-11-25T01:01:41.770Z,2.60
2022-11-25T01:07:01.956Z,2.90
2022-11-25T01:12:22.116Z,2.73
2022-11-25T01:17:42.433Z,2.60
2022-11-25T01:23:02.589Z,2.80
2022-11-25T01:28:22.713Z,2.90
2022-11-25T01:33:42.768Z,2.90
2022-11-25T01:39:02.917Z,3.10
2022-11-25T01:44:22.919Z,2.70
2022-11-25T01:49:43.120Z,3.03
2022-11-25T01:55:03.309Z,2.23
2022-11-25T02:00:23.534Z,2.13
2022-11-25T02:05:43.768Z,3.17
2022-11-25T02:11:03.966Z,2.70
2022-11-25T02:16:24.059Z,2.20
2022-11-25T02:21:44.210Z,2.20
2022-11-25T02:27:04.233Z,2.80
2022-11-25T02:32:24.343Z,2.17
2022-11-25T02:37:44.526Z,2.57
2022-11-25T02:43:04.676Z,2.60
2022-11-25T02:48:40.073Z,2.20
2022-11-25T02:54:04.793Z,2.53
2022-11-25T02:59:24.886Z,2.40
2022-11-25T03:04:44.943Z,2.70
2022-11-25T03:10:05.041Z,2.73
2022-11-25T03:15:25.330Z,2.50
2022-11-25T03:20:45.352Z,2.93
2022-11-25T03:26:05.469Z,2.27
2022-11-25T03:31:25.594Z,2.40
2022-11-25T03:36:45.778Z,2.60
2022-11-25T03:42:06.005Z,2.20
2022-11-25T03:47:26.321Z,2.73
2022-11-25T03:52:46.477Z,2.87
2022-11-25T03:58:06.605Z,2.50
2022-11-25T04:03:26.688Z,2.13
2022-11-25T04:08:46.882Z,2.40
2022-11-25T04:14:06.919Z,2.13
2022-11-25T04:19:27.065Z,2.40
2022-11-25T04:24:47.244Z,2.50
2022-11-25T04:30:07.403Z,2.17
2022-11-25T04:35:27.368Z,2.40
2022-11-25T04:40:47.579Z,2.67
2022-11-25T04:46:15.243Z,2.27
2022-11-25T04:51:35.568Z,2.53
2022-11-25T04:56:55.799Z,2.20
2022-11-25T05:02:16.050Z,2.30
2022-11-25T05:07:36.152Z,1.90
2022-11-25T05:12:56.309Z,1.90
2022-11-25T05:18:16.513Z,2.10
2022-11-25T05:23:36.663Z,2.07
2022-11-25T05:28:56.704Z,2.17
2022-11-25T05:34:16.878Z,2.13
2022-11-25T05:39:37.049Z,2.53
2022-11-25T05:44:57.198Z,2.53
2022-11-25T05:50:17.386Z,2.20
2022-11-25T05:55:37.451Z,2.40
2022-11-25T06:00:57.443Z,2.30
2022-11-25T06:06:18.095Z,1.80
2022-11-25T06:11:38.122Z,2.30
2022-11-25T06:16:58.219Z,2.30
2022-11-25T06:22:18.333Z,2.43
2022-11-25T06:28:04.599Z,2.37
2022-11-25T06:33:18.258Z,1.63
2022-11-25T06:38:38.312Z,1.83
2022-11-25T06:43:58.544Z,2.10
2022-11-25T06:49:18.696Z,1.60
2022-11-25T06:54:38.775Z,2.00
2022-11-25T06:59:58.897Z,1.70
2022-11-25T07:05:19.194Z,1.70
2022-11-25T07:10:39.464Z,2.03
2022-11-25T07:15:59.793Z,2.40
2022-11-25T07:21:19.883Z,2.00
2022-11-25T07:26:40.022Z,1.83
2022-11-25T07:32:00.544Z,1.97
2022-11-25T07:37:22.482Z,2.20
2022-11-25T07:42:42.568Z,2.10
2022-11-25T07:48:02.855Z,2.13
2022-11-25T07:53:23.007Z,2.03
2022-11-25T07:58:46.044Z,1.70
2022-11-25T08:04:06.298Z,1.80
2022-11-25T08:09:26.637Z,1.90
2022-11-25T08:14:46.788Z,2.23
2022-11-25T08:20:06.881Z,1.90
2022-11-25T08:25:27.012Z,2.30
2022-11-25T08:30:47.272Z,1.80
2022-11-25T08:36:07.319Z,2.27
2022-11-25T08:41:27.503Z,2.00
2022-11-25T08:46:47.544Z,2.47
2022-11-25T08:52:07.773Z,2.50
2022-11-25T08:57:27.863Z,2.23
2022-11-25T09:02:48.085Z,2.47
2022-11-25T09:08:08.101Z,2.00
2022-11-25T09:13:28.124Z,2.10
2022-11-25T09:18:54.029Z,1.93
2022-11-25T09:24:15.917Z,2.00
2022-11-25T09:29:36.480Z,2.00
2022-11-25T09:34:56.730Z,1.80
2022-11-25T09:40:16.968Z,2.23
2022-11-25T09:45:37.144Z,2.40
2022-11-25T09:50:57.430Z,2.13
2022-11-25T09:56:17.612Z,2.20
2022-11-25T10:01:37.985Z,1.73
2022-11-25T10:06:57.930Z,2.63
2022-11-25T10:12:18.012Z,2.50
2022-11-25T10:17:38.173Z,2.23
2022-11-25T10:22:58.435Z,2.27
2022-11-25T10:28:18.500Z,2.87
2022-11-25T10:33:38.633Z,2.10
2022-11-25T10:38:58.832Z,2.40
2022-11-25T10:44:18.935Z,2.30
2022-11-25T10:49:39.036Z,2.40
2022-11-25T10:54:59.299Z,2.20
2022-11-25T11:00:19.360Z,1.87
2022-11-25T11:05:45.226Z,2.40
2022-11-25T11:11:06.159Z,1.73
2022-11-25T11:16:26.414Z,2.57
2022-11-25T11:21:46.463Z,1.73
2022-11-25T11:27:06.562Z,2.20
2022-11-25T11:32:26.614Z,1.90
2022-11-25T11:37:46.857Z,1.93
2022-11-25T11:43:07.049Z,2.13
2022-11-25T11:48:27.464Z,2.33
2022-11-25T11:53:47.504Z,2.30
2022-11-25T11:59:07.724Z,1.80
2022-11-25T12:04:27.879Z,2.20
2022-11-25T12:09:48.045Z,2.00
2022-11-25T12:15:08.287Z,2.17
2022-11-25T12:20:28.557Z,2.43
2022-11-25T12:25:48.554Z,2.00
2022-11-25T12:31:08.766Z,1.80
2022-11-25T12:36:28.919Z,2.20
2022-11-25T12:41:49.154Z,1.90
2022-11-25T12:47:09.284Z,1.50
2022-11-25T12:52:29.331Z,1.60
2022-11-25T12:57:49.612Z,1.90
2022-11-25T13:03:13.890Z,2.07
2022-11-25T13:08:34.158Z,1.83
2022-11-25T13:13:54.736Z,2.03
2022-11-25T13:19:15.022Z,2.00
2022-11-25T13:24:35.557Z,2.37
2022-11-25T13:29:55.822Z,1.87
2022-11-25T13:35:16.008Z,1.50
2022-11-25T13:40:36.213Z,2.03
2022-11-25T13:45:56.530Z,1.63
2022-11-25T13:51:16.705Z,1.87
2022-11-25T13:56:36.798Z,1.90
2022-11-25T14:01:57.033Z,2.30
2022-11-25T14:07:19.827Z,1.97
2022-11-25T14:12:40.329Z,2.03
2022-11-25T14:18:00.344Z,1.90
2022-11-25T14:23:22.696Z,1.70
2022-11-25T14:28:42.750Z,2.13
2022-11-25T14:34:02.965Z,2.10
2022-11-25T14:39:22.967Z,1.80
2022-11-25T14:44:43.106Z,2.00
2022-11-25T14:50:33.187Z,1.97
2022-11-25T14:55:42.911Z,2.10
2022-11-25T15:01:03.021Z,2.20
2022-11-25T15:06:23.148Z,2.23
2022-11-25T15:11:43.251Z,2.43
2022-11-25T15:17:03.428Z,2.20
2022-11-25T15:22:24.651Z,2.50
2022-11-25T15:27:44.861Z,2.20
2022-11-25T15:33:05.099Z,1.87
2022-11-25T15:38:25.338Z,2.10
2022-11-25T15:43:45.378Z,1.90
2022-11-25T15:49:05.562Z,2.00
2022-11-25T15:54:25.696Z,2.23
2022-11-25T15:59:45.761Z,1.87
2022-11-25T16:05:05.883Z,1.83
2022-11-25T16:10:26.157Z,1.73
2022-11-25T16:15:46.310Z,1.60
2022-11-25T16:21:06.470Z,1.80
2022-11-25T16:26:26.406Z,1.70
2022-11-25T16:31:46.634Z,2.00
2022-11-25T16:37:06.577Z,1.97
2022-11-25T16:42:26.782Z,1.70
2022-11-25T16:47:46.745Z,1.50
2022-11-25T16:53:06.961Z,2.03
2022-11-25T16:58:27.114Z,1.63
2022-11-25T17:03:47.189Z,1.80
2022-11-25T17:09:07.200Z,1.97
2022-11-25T17:14:27.347Z,1.80
2022-11-25T17:19:47.373Z,1.53
2022-11-25T17:25:07.611Z,1.50
2022-11-25T17:30:27.704Z,1.70
2022-11-25T17:35:47.925Z,1.77
2022-11-25T17:41:08.069Z,1.60
2022-11-25T17:46:28.303Z,1.90
2022-11-25T17:51:48.243Z,1.80
2022-11-25T17:57:08.386Z,1.93
2022-11-25T18:02:28.484Z,2.20
2022-11-25T18:07:48.557Z,1.70
2022-11-25T18:13:08.695Z,1.90
2022-11-25T18:18:28.855Z,1.80
2022-11-25T18:23:48.979Z,1.43
2022-11-25T18:29:09.261Z,1.37
2022-11-25T18:34:29.288Z,1.40
2022-11-25T18:39:49.460Z,1.50
2022-11-25T18:45:09.474Z,1.20
2022-11-25T18:50:29.628Z,1.67
2022-11-25T18:55:49.644Z,1.47
2022-11-25T19:01:09.875Z,1.63
2022-11-25T19:06:29.988Z,1.53
2022-11-25T19:11:50.147Z,1.90
2022-11-25T19:17:10.996Z,1.57
2022-11-25T19:22:32.966Z,1.40
2022-11-25T19:27:53.111Z,1.83
2022-11-25T19:33:13.311Z,1.90
2022-11-25T19:38:33.478Z,1.73
2022-11-25T19:43:53.794Z,1.70
2022-11-25T19:49:13.944Z,2.00
2022-11-25T19:54:34.414Z,2.10
2022-11-25T19:59:54.361Z,1.97
2022-11-25T20:05:14.555Z,1.83
2022-11-25T20:10:34.708Z,1.97
2022-11-25T20:15:54.829Z,1.57
2022-11-25T20:21:14.909Z,1.57
2022-11-25T20:26:35.163Z,1.90
2022-11-25T20:31:55.243Z,1.57
2022-11-25T20:37:15.400Z,1.80
2022-11-25T20:42:35.677Z,2.13
2022-11-25T20:47:56.038Z,1.80
2022-11-25T20:53:16.152Z,2.03
2022-11-25T20:58:36.681Z,2.10
2022-11-25T21:03:56.894Z,2.10
2022-11-25T21:09:17.096Z,1.70
2022-11-25T21:14:37.548Z,1.70
2022-11-25T21:19:57.937Z,2.33
2022-11-25T21:25:18.122Z,1.90
2022-11-25T21:30:38.399Z,2.20
2022-11-25T21:36:01.551Z,2.10
2022-11-25T21:41:21.614Z,1.97
2022-11-25T21:46:41.747Z,2.30
2022-11-25T21:52:01.807Z,2.57
2022-11-25T21:57:21.905Z,1.80
2022-11-25T22:02:42.052Z,1.87
2022-11-25T22:08:02.337Z,2.00
2022-11-25T22:13:22.363Z,2.10
2022-11-25T22:18:42.422Z,1.40
2022-11-25T22:24:02.663Z,1.93
2022-11-25T22:29:22.717Z,2.00
2022-11-25T22:34:42.896Z,2.17
2022-11-25T22:40:03.015Z,1.80
2022-11-25T22:45:23.261Z,2.27
2022-11-25T22:50:43.294Z,2.37
2022-11-25T22:56:03.594Z,1.97
2022-11-25T23:01:23.675Z,1.60
2022-11-25T23:06:43.881Z,2.07
2022-11-25T23:12:03.955Z,1.70
2022-11-25T23:17:24.202Z,1.90
2022-11-25T23:22:44.274Z,2.00
2022-11-25T23:28:04.377Z,2.33
2022-11-25T23:33:24.474Z,2.03
2022-11-25T23:38:44.772Z,2.00
2022-11-25T23:44:04.850Z,2.13
2022-11-25T23:49:24.980Z,1.70
2022-11-25T23:54:45.121Z,1.90
